sensor_id;sensor_type;location;lat;lon;timestamp;P1;durP1;ratioP1;P2;durP2;ratioP2
6828;SDS011;17930;48.592;8.868;2024-03-23T00:54:16;5.00;;;2.93;;
6828;SDS011;17930;48.592;8.868;2024-03-23T00:56:43;3.47;;;2.70;;
6828;SDS011;17930;48.592;8.868;2024-03-23T00:59:09;2.80;;;2.50;;
6828;SDS011;17930;48.592;8.868;2024-03-23T01:01:37;4.37;;;2.80;;
6828;SDS011;17930;48.592;8.868;2024-03-23T01:04:03;6.80;;;2.60;;
6828;SDS011;17930;48.592;8.868;2024-03-23T01:06:29;5.10;;;2.90;;
6828;SDS011;17930;48.592;8.868;2024-03-23T01:08:57;3.23;;;2.67;;
6828;SDS011;17930;48.592;8.868;2024-03-23T01:11:23;3.40;;;2.73;;
6828;SDS011;17930;48.592;8.868;2024-03-23T01:13:49;4.57;;;2.97;;
6828;SDS011;17930;48.592;8.868;2024-03-23T01:16:15;4.03;;;2.80;;
6828;SDS011;17930;48.592;8.868;2024-03-23T01:18:41;3.13;;;2.33;;
6828;SDS011;17930;48.592;8.868;2024-03-23T01:21:08;6.50;;;2.80;;
6828;SDS011;17930;48.592;8.868;2024-03-23T01:23:33;3.33;;;2.00;;
6828;SDS011;17930;48.592;8.868;2024-03-23T01:26:01;3.37;;;2.20;;
6828;SDS011;17930;48.592;8.868;2024-03-23T01:28:27;5.80;;;2.60;;
6828;SDS011;17930;48.592;8.868;2024-03-23T01:30:54;3.33;;;2.27;;
6828;SDS011;17930;48.592;8.868;2024-03-23T01:33:20;5.73;;;2.20;;
6828;SDS011;17930;48.592;8.868;2024-03-23T01:35:47;2.90;;;2.07;;
6828;SDS011;17930;48.592;8.868;2024-03-23T01:38:13;4.37;;;2.57;;
6828;SDS011;17930;48.592;8.868;2024-03-23T01:40:39;2.80;;;2.03;;
6828;SDS011;17930;48.592;8.868;2024-03-23T01:43:07;4.40;;;2.67;;
6828;SDS011;17930;48.592;8.868;2024-03-23T01:45:34;3.20;;;2.20;;
6828;SDS011;17930;48.592;8.868;2024-03-23T01:48:00;3.47;;;2.33;;
6828;SDS011;17930;48.592;8.868;2024-03-23T01:50:28;2.60;;;1.90;;
6828;SDS011;17930;48.592;8.868;2024-03-23T01:52:55;5.93;;;2.10;;
6828;SDS011;17930;48.592;8.868;2024-03-23T01:55:23;4.23;;;2.60;;
6828;SDS011;17930;48.592;8.868;2024-03-23T01:57:50;2.83;;;2.10;;
6828;SDS011;17930;48.592;8.868;2024-03-23T02:00:18;2.70;;;1.97;;
6828;SDS011;17930;48.592;8.868;2024-03-23T02:02:44;2.87;;;2.33;;
6828;SDS011;17930;48.592;8.868;2024-03-23T02:05:12;5.00;;;2.40;;
6828;SDS011;17930;48.592;8.868;2024-03-23T02:07:38;3.07;;;2.37;;
6828;SDS011;17930;48.592;8.868;2024-03-23T02:10:06;4.33;;;2.73;;
6828;SDS011;17930;48.592;8.868;2024-03-23T02:12:32;5.77;;;2.40;;
6828;SDS011;17930;48.592;8.868;2024-03-23T02:14:59;5.50;;;2.47;;
6828;SDS011;17930;48.592;8.868;2024-03-23T02:17:26;2.93;;;2.40;;
6828;SDS011;17930;48.592;8.868;2024-03-23T02:19:54;3.23;;;2.40;;
6828;SDS011;17930;48.592;8.868;2024-03-23T02:22:20;2.17;;;1.93;;
6828;SDS011;17930;48.592;8.868;2024-03-23T02:24:48;3.37;;;2.37;;
6828;SDS011;17930;48.592;8.868;2024-03-23T02:27:13;6.27;;;2.73;;
6828;SDS011;17930;48.592;8.868;2024-03-23T02:29:40;3.83;;;2.17;;
6828;SDS011;17930;48.592;8.868;2024-03-23T02:32:06;4.57;;;2.40;;
6828;SDS011;17930;48.592;8.868;2024-03-23T02:34:34;7.03;;;2.50;;
6828;SDS011;17930;48.592;8.868;2024-03-23T02:37:00;2.73;;;2.20;;
6828;SDS011;17930;48.592;8.868;2024-03-23T02:39:26;5.60;;;2.73;;
6828;SDS011;17930;48.592;8.868;2024-03-23T02:41:54;5.50;;;2.53;;
6828;SDS011;17930;48.592;8.868;2024-03-23T02:44:20;2.33;;;2.00;;
6828;SDS011;17930;48.592;8.868;2024-03-23T02:46:46;3.17;;;2.40;;
6828;SDS011;17930;48.592;8.868;2024-03-23T02:49:13;4.60;;;2.30;;
6828;SDS011;17930;48.592;8.868;2024-03-23T02:51:39;4.37;;;2.27;;
6828;SDS011;17930;48.592;8.868;2024-03-23T02:54:06;5.10;;;2.00;;
6828;SDS011;17930;48.592;8.868;2024-03-23T02:56:32;3.73;;;2.10;;
6828;SDS011;17930;48.592;8.868;2024-03-23T02:59:00;3.73;;;2.17;;
6828;SDS011;17930;48.592;8.868;2024-03-23T03:01:26;3.37;;;2.50;;
6828;SDS011;17930;48.592;8.868;2024-03-23T03:03:52;3.00;;;2.07;;
6828;SDS011;17930;48.592;8.868;2024-03-23T03:06:24;2.97;;;2.10;;
6828;SDS011;17930;48.592;8.868;2024-03-23T03:08:51;3.03;;;2.27;;
6828;SDS011;17930;48.592;8.868;2024-03-23T03:11:17;2.67;;;1.90;;
6828;SDS011;17930;48.592;8.868;2024-03-23T03:13:44;4.17;;;2.30;;
6828;SDS011;17930;48.592;8.868;2024-03-23T03:16:11;3.53;;;2.20;;
6828;SDS011;17930;48.592;8.868;2024-03-23T03:18:38;3.57;;;2.10;;
6828;SDS011;17930;48.592;8.868;2024-03-23T03:21:05;3.33;;;2.23;;
6828;SDS011;17930;48.592;8.868;2024-03-23T03:23:35;3.33;;;2.17;;
6828;SDS011;17930;48.592;8.868;2024-03-23T03:26:02;3.00;;;2.10;;
6828;SDS011;17930;48.592;8.868;2024-03-23T03:28:29;3.10;;;2.20;;
6828;SDS011;17930;48.592;8.868;2024-03-23T03:30:56;4.13;;;2.27;;
6828;SDS011;17930;48.592;8.868;2024-03-23T03:33:25;3.00;;;2.10;;
6828;SDS011;17930;48.592;8.868;2024-03-23T03:35:51;2.73;;;2.20;;
6828;SDS011;17930;48.592;8.868;2024-03-23T03:38:18;3.53;;;2.20;;
6828;SDS011;17930;48.592;8.868;2024-03-23T03:40:44;2.90;;;2.30;;
6828;SDS011;17930;48.592;8.868;2024-03-23T03:43:11;3.53;;;2.27;;
6828;SDS011;17930;48.592;8.868;2024-03-23T03:45:37;2.23;;;1.90;;
6828;SDS011;17930;48.592;8.868;2024-03-23T03:48:04;2.60;;;1.90;;
6828;SDS011;17930;48.592;8.868;2024-03-23T03:50:32;2.13;;;1.60;;
6828;SDS011;17930;48.592;8.868;2024-03-23T03:52:58;4.00;;;2.27;;
6828;SDS011;17930;48.592;8.868;2024-03-23T03:55:24;4.93;;;2.57;;
6828;SDS011;17930;48.592;8.868;2024-03-23T03:57:51;3.13;;;2.23;;
6828;SDS011;17930;48.592;8.868;2024-03-23T04:00:17;4.97;;;2.30;;
6828;SDS011;17930;48.592;8.868;2024-03-23T04:02:44;3.57;;;2.30;;
6828;SDS011;17930;48.592;8.868;2024-03-23T04:05:10;6.07;;;2.63;;
6828;SDS011;17930;48.592;8.868;2024-03-23T04:07:41;2.80;;;2.10;;
6828;SDS011;17930;48.592;8.868;2024-03-23T04:10:08;3.40;;;2.23;;
6828;SDS011;17930;48.592;8.868;2024-03-23T04:12:35;3.13;;;2.33;;
6828;SDS011;17930;48.592;8.868;2024-03-23T04:15:00;4.60;;;2.50;;
6828;SDS011;17930;48.592;8.868;2024-03-23T04:17:29;2.87;;;2.03;;
6828;SDS011;17930;48.592;8.868;2024-03-23T04:19:57;2.97;;;2.30;;
6828;SDS011;17930;48.592;8.868;2024-03-23T04:22:24;5.40;;;2.60;;
6828;SDS011;17930;48.592;8.868;2024-03-23T04:24:53;3.03;;;2.20;;
6828;SDS011;17930;48.592;8.868;2024-03-23T04:27:21;1.90;;;1.70;;
6828;SDS011;17930;48.592;8.868;2024-03-23T04:29:50;6.83;;;2.70;;
6828;SDS011;17930;48.592;8.868;2024-03-23T04:32:18;3.63;;;2.30;;
6828;SDS011;17930;48.592;8.868;2024-03-23T04:34:44;3.93;;;2.37;;
6828;SDS011;17930;48.592;8.868;2024-03-23T04:37:11;3.77;;;2.80;;
6828;SDS011;17930;48.592;8.868;2024-03-23T04:39:38;4.17;;;2.93;;
6828;SDS011;17930;48.592;8.868;2024-03-23T04:42:06;4.37;;;2.60;;
6828;SDS011;17930;48.592;8.868;2024-03-23T04:44:33;3.27;;;2.60;;
6828;SDS011;17930;48.592;8.868;2024-03-23T04:47:00;4.57;;;2.20;;
6828;SDS011;17930;48.592;8.868;2024-03-23T04:49:27;3.33;;;2.60;;
6828;SDS011;17930;48.592;8.868;2024-03-23T04:51:54;4.73;;;2.30;;
6828;SDS011;17930;48.592;8.868;2024-03-23T04:54:21;4.63;;;2.57;;
6828;SDS011;17930;48.592;8.868;2024-03-23T04:56:47;3.87;;;2.73;;
6828;SDS011;17930;48.592;8.868;2024-03-23T04:59:14;3.70;;;2.53;;
6828;SDS011;17930;48.592;8.868;2024-03-23T05:01:41;5.60;;;3.20;;
6828;SDS011;17930;48.592;8.868;2024-03-23T05:04:08;5.93;;;2.93;;
6828;SDS011;17930;48.592;8.868;2024-03-23T05:06:34;5.57;;;3.37;;
6828;SDS011;17930;48.592;8.868;2024-03-23T05:09:00;4.23;;;3.00;;
6828;SDS011;17930;48.592;8.868;2024-03-23T05:11:28;6.63;;;3.83;;
6828;SDS011;17930;48.592;8.868;2024-03-23T05:13:54;4.77;;;3.27;;
6828;SDS011;17930;48.592;8.868;2024-03-23T05:16:22;6.97;;;3.93;;
6828;SDS011;17930;48.592;8.868;2024-03-23T05:18:48;5.80;;;4.07;;
6828;SDS011;17930;48.592;8.868;2024-03-23T05:21:14;6.63;;;4.27;;
6828;SDS011;17930;48.592;8.868;2024-03-23T05:23:40;7.30;;;4.47;;
6828;SDS011;17930;48.592;8.868;2024-03-23T05:26:08;9.13;;;5.03;;
6828;SDS011;17930;48.592;8.868;2024-03-23T05:28:34;6.77;;;5.03;;
6828;SDS011;17930;48.592;8.868;2024-03-23T05:31:01;7.23;;;5.00;;
6828;SDS011;17930;48.592;8.868;2024-03-23T05:33:29;9.83;;;5.43;;
6828;SDS011;17930;48.592;8.868;2024-03-23T05:35:56;9.30;;;5.40;;
6828;SDS011;17930;48.592;8.868;2024-03-23T05:38:23;9.90;;;5.17;;
6828;SDS011;17930;48.592;8.868;2024-03-23T05:40:53;10.00;;;5.07;;
6828;SDS011;17930;48.592;8.868;2024-03-23T05:43:19;6.73;;;3.87;;
6828;SDS011;17930;48.592;8.868;2024-03-23T05:45:47;7.40;;;4.00;;
6828;SDS011;17930;48.592;8.868;2024-03-23T05:48:18;8.13;;;4.10;;
6828;SDS011;17930;48.592;8.868;2024-03-23T05:50:46;5.60;;;3.20;;
6828;SDS011;17930;48.592;8.868;2024-03-23T05:53:12;6.33;;;3.83;;
6828;SDS011;17930;48.592;8.868;2024-03-23T05:55:39;5.40;;;3.20;;
6828;SDS011;17930;48.592;8.868;2024-03-23T05:58:04;6.03;;;3.07;;
6828;SDS011;17930;48.592;8.868;2024-03-23T06:00:31;6.17;;;2.67;;
6828;SDS011;17930;48.592;8.868;2024-03-23T06:02:57;3.03;;;2.17;;
6828;SDS011;17930;48.592;8.868;2024-03-23T06:05:24;3.40;;;1.83;;
6828;SDS011;17930;48.592;8.868;2024-03-23T06:07:51;3.03;;;1.70;;
6828;SDS011;17930;48.592;8.868;2024-03-23T06:10:18;3.20;;;1.50;;
6828;SDS011;17930;48.592;8.868;2024-03-23T06:12:43;1.47;;;1.00;;
6828;SDS011;17930;48.592;8.868;2024-03-23T06:15:12;2.00;;;0.93;;
6828;SDS011;17930;48.592;8.868;2024-03-23T06:17:38;1.00;;;0.77;;
6828;SDS011;17930;48.592;8.868;2024-03-23T06:20:05;0.90;;;0.70;;
6828;SDS011;17930;48.592;8.868;2024-03-23T06:22:32;0.73;;;0.63;;
6828;SDS011;17930;48.592;8.868;2024-03-23T06:25:00;1.00;;;0.60;;
6828;SDS011;17930;48.592;8.868;2024-03-23T06:27:25;1.20;;;0.70;;
6828;SDS011;17930;48.592;8.868;2024-03-23T06:29:52;0.83;;;0.53;;
6828;SDS011;17930;48.592;8.868;2024-03-23T06:32:18;1.27;;;0.70;;
6828;SDS011;17930;48.592;8.868;2024-03-23T06:34:44;1.10;;;0.80;;
6828;SDS011;17930;48.592;8.868;2024-03-23T06:37:11;0.97;;;0.60;;
6828;SDS011;17930;48.592;8.868;2024-03-23T06:39:38;0.80;;;0.50;;
6828;SDS011;17930;48.592;8.868;2024-03-23T06:42:05;1.80;;;0.63;;
6828;SDS011;17930;48.592;8.868;2024-03-23T06:44:33;1.23;;;0.83;;
6828;SDS011;17930;48.592;8.868;2024-03-23T06:46:59;1.23;;;0.70;;
6828;SDS011;17930;48.592;8.868;2024-03-23T06:49:26;1.27;;;0.93;;
6828;SDS011;17930;48.592;8.868;2024-03-23T06:51:52;0.43;;;0.43;;
6828;SDS011;17930;48.592;8.868;2024-03-23T06:54:18;0.70;;;0.40;;
6828;SDS011;17930;48.592;8.868;2024-03-23T06:56:44;0.53;;;0.53;;
6828;SDS011;17930;48.592;8.868;2024-03-23T06:59:13;0.53;;;0.33;;
6828;SDS011;17930;48.592;8.868;2024-03-23T07:01:38;0.37;;;0.37;;
6828;SDS011;17930;48.592;8.868;2024-03-23T07:04:05;0.80;;;0.50;;
6828;SDS011;17930;48.592;8.868;2024-03-23T07:06:31;0.57;;;0.50;;
6828;SDS011;17930;48.592;8.868;2024-03-23T07:08:58;0.67;;;0.43;;
6828;SDS011;17930;48.592;8.868;2024-03-23T07:11:23;1.20;;;0.80;;
6828;SDS011;17930;48.592;8.868;2024-03-23T07:13:51;0.43;;;0.43;;
6828;SDS011;17930;48.592;8.868;2024-03-23T07:16:19;1.93;;;0.70;;
6828;SDS011;17930;48.592;8.868;2024-03-23T07:18:45;1.67;;;0.83;;
6828;SDS011;17930;48.592;8.868;2024-03-23T07:21:11;0.77;;;0.50;;
6828;SDS011;17930;48.592;8.868;2024-03-23T07:23:41;0.53;;;0.53;;
6828;SDS011;17930;48.592;8.868;2024-03-23T07:26:09;0.53;;;0.53;;
6828;SDS011;17930;48.592;8.868;2024-03-23T07:28:36;2.10;;;0.70;;
6828;SDS011;17930;48.592;8.868;2024-03-23T07:31:03;0.60;;;0.60;;
6828;SDS011;17930;48.592;8.868;2024-03-23T07:33:32;0.93;;;0.63;;
6828;SDS011;17930;48.592;8.868;2024-03-23T07:35:58;0.60;;;0.60;;
6828;SDS011;17930;48.592;8.868;2024-03-23T07:38:26;1.20;;;1.10;;
6828;SDS011;17930;48.592;8.868;2024-03-23T07:40:52;0.67;;;0.57;;
6828;SDS011;17930;48.592;8.868;2024-03-23T07:43:21;0.90;;;0.63;;
6828;SDS011;17930;48.592;8.868;2024-03-23T07:45:51;1.37;;;0.70;;
6828;SDS011;17930;48.592;8.868;2024-03-23T07:48:18;0.93;;;0.67;;
6828;SDS011;17930;48.592;8.868;2024-03-23T07:50:45;2.07;;;1.23;;
6828;SDS011;17930;48.592;8.868;2024-03-23T07:53:12;2.00;;;0.77;;
6828;SDS011;17930;48.592;8.868;2024-03-23T07:55:38;1.40;;;0.80;;
6828;SDS011;17930;48.592;8.868;2024-03-23T07:58:04;3.40;;;0.70;;
6828;SDS011;17930;48.592;8.868;2024-03-23T08:00:31;1.10;;;0.67;;
6828;SDS011;17930;48.592;8.868;2024-03-23T08:02:57;1.30;;;0.80;;
6828;SDS011;17930;48.592;8.868;2024-03-23T08:05:25;1.10;;;0.80;;
6828;SDS011;17930;48.592;8.868;2024-03-23T08:07:53;0.90;;;0.70;;
6828;SDS011;17930;48.592;8.868;2024-03-23T08:10:19;1.00;;;0.87;;
6828;SDS011;17930;48.592;8.868;2024-03-23T08:12:46;1.40;;;0.83;;
6828;SDS011;17930;48.592;8.868;2024-03-23T08:15:11;3.17;;;1.30;;
6828;SDS011;17930;48.592;8.868;2024-03-23T08:17:38;2.23;;;0.80;;
6828;SDS011;17930;48.592;8.868;2024-03-23T08:20:04;2.10;;;1.10;;
6828;SDS011;17930;48.592;8.868;2024-03-23T08:22:33;1.77;;;1.00;;
6828;SDS011;17930;48.592;8.868;2024-03-23T08:25:01;3.30;;;1.20;;
6828;SDS011;17930;48.592;8.868;2024-03-23T08:27:28;1.87;;;1.10;;
6828;SDS011;17930;48.592;8.868;2024-03-23T08:29:54;2.67;;;1.60;;
6828;SDS011;17930;48.592;8.868;2024-03-23T08:32:24;3.17;;;1.27;;
6828;SDS011;17930;48.592;8.868;2024-03-23T08:34:49;4.67;;;1.70;;
6828;SDS011;17930;48.592;8.868;2024-03-23T08:37:16;2.60;;;1.70;;
6828;SDS011;17930;48.592;8.868;2024-03-23T08:39:42;2.83;;;1.43;;
6828;SDS011;17930;48.592;8.868;2024-03-23T08:42:11;7.73;;;3.40;;
6828;SDS011;17930;48.592;8.868;2024-03-23T08:44:37;1.50;;;1.17;;
6828;SDS011;17930;48.592;8.868;2024-03-23T08:47:04;3.70;;;1.57;;
6828;SDS011;17930;48.592;8.868;2024-03-23T08:49:30;5.40;;;1.80;;
6828;SDS011;17930;48.592;8.868;2024-03-23T08:51:57;6.03;;;2.50;;
6828;SDS011;17930;48.592;8.868;2024-03-23T08:54:23;5.30;;;2.27;;
6828;SDS011;17930;48.592;8.868;2024-03-23T08:56:52;7.63;;;2.50;;
6828;SDS011;17930;48.592;8.868;2024-03-23T08:59:19;3.87;;;1.70;;
6828;SDS011;17930;48.592;8.868;2024-03-23T09:01:46;3.83;;;2.10;;
6828;SDS011;17930;48.592;8.868;2024-03-23T09:04:12;2.50;;;2.00;;
6828;SDS011;17930;48.592;8.868;2024-03-23T09:06:38;5.90;;;2.53;;
6828;SDS011;17930;48.592;8.868;2024-03-23T09:09:04;4.47;;;2.53;;
6828;SDS011;17930;48.592;8.868;2024-03-23T09:11:31;4.07;;;2.23;;
6828;SDS011;17930;48.592;8.868;2024-03-23T09:13:57;3.83;;;2.40;;
6828;SDS011;17930;48.592;8.868;2024-03-23T09:16:25;4.97;;;2.20;;
6828;SDS011;17930;48.592;8.868;2024-03-23T09:18:51;5.13;;;1.87;;
6828;SDS011;17930;48.592;8.868;2024-03-23T09:21:18;5.67;;;2.10;;
6828;SDS011;17930;48.592;8.868;2024-03-23T09:23:44;2.50;;;2.03;;
6828;SDS011;17930;48.592;8.868;2024-03-23T09:26:12;5.70;;;2.20;;
6828;SDS011;17930;48.592;8.868;2024-03-23T09:28:38;5.73;;;2.40;;
6828;SDS011;17930;48.592;8.868;2024-03-23T09:31:04;6.27;;;2.03;;
6828;SDS011;17930;48.592;8.868;2024-03-23T09:33:32;5.77;;;1.83;;
6828;SDS011;17930;48.592;8.868;2024-03-23T09:36:02;2.53;;;1.80;;
6828;SDS011;17930;48.592;8.868;2024-03-23T09:38:29;4.60;;;2.07;;
6828;SDS011;17930;48.592;8.868;2024-03-23T09:40:57;5.20;;;1.90;;
6828;SDS011;17930;48.592;8.868;2024-03-23T09:43:24;7.67;;;2.20;;
6828;SDS011;17930;48.592;8.868;2024-03-23T09:45:53;2.13;;;1.53;;
6828;SDS011;17930;48.592;8.868;2024-03-23T09:48:19;2.73;;;1.77;;
6828;SDS011;17930;48.592;8.868;2024-03-23T09:50:47;3.73;;;1.97;;
6828;SDS011;17930;48.592;8.868;2024-03-23T09:53:14;6.83;;;2.13;;
6828;SDS011;17930;48.592;8.868;2024-03-23T09:55:42;3.37;;;2.03;;
6828;SDS011;17930;48.592;8.868;2024-03-23T09:58:12;3.77;;;1.63;;
6828;SDS011;17930;48.592;8.868;2024-03-23T10:00:41;3.53;;;2.17;;
6828;SDS011;17930;48.592;8.868;2024-03-23T10:03:07;4.30;;;1.97;;
6828;SDS011;17930;48.592;8.868;2024-03-23T10:05:36;7.20;;;2.27;;
6828;SDS011;17930;48.592;8.868;2024-03-23T10:08:16;5.20;;;2.57;;
6828;SDS011;17930;48.592;8.868;2024-03-23T10:10:45;5.37;;;2.07;;
6828;SDS011;17930;48.592;8.868;2024-03-23T10:13:11;3.93;;;1.87;;
6828;SDS011;17930;48.592;8.868;2024-03-23T10:15:55;5.80;;;2.57;;
6828;SDS011;17930;48.592;8.868;2024-03-23T10:18:25;3.63;;;1.97;;
6828;SDS011;17930;48.592;8.868;2024-03-23T10:21:06;2.70;;;2.07;;
6828;SDS011;17930;48.592;8.868;2024-03-23T10:23:34;5.17;;;2.53;;
6828;SDS011;17930;48.592;8.868;2024-03-23T10:26:16;5.43;;;2.20;;
6828;SDS011;17930;48.592;8.868;2024-03-23T10:31:33;6.43;;;2.40;;
6828;SDS011;17930;48.592;8.868;2024-03-23T10:34:01;4.80;;;2.57;;
6828;SDS011;17930;48.592;8.868;2024-03-23T10:36:29;6.03;;;2.50;;
6828;SDS011;17930;48.592;8.868;2024-03-23T10:38:57;5.73;;;2.73;;
6828;SDS011;17930;48.592;8.868;2024-03-23T10:41:24;4.03;;;1.63;;
6828;SDS011;17930;48.592;8.868;2024-03-23T10:43:52;2.03;;;1.00;;
6828;SDS011;17930;48.592;8.868;2024-03-23T10:46:20;1.50;;;1.00;;
6828;SDS011;17930;48.592;8.868;2024-03-23T10:48:45;3.30;;;1.23;;
6828;SDS011;17930;48.592;8.868;2024-03-23T10:51:12;3.27;;;1.57;;
6828;SDS011;17930;48.592;8.868;2024-03-23T10:53:40;0.93;;;0.80;;
6828;SDS011;17930;48.592;8.868;2024-03-23T10:56:08;1.90;;;1.20;;
6828;SDS011;17930;48.592;8.868;2024-03-23T10:58:38;2.67;;;1.13;;
6828;SDS011;17930;48.592;8.868;2024-03-23T11:01:07;1.97;;;1.23;;
6828;SDS011;17930;48.592;8.868;2024-03-23T11:03:36;3.87;;;1.50;;
6828;SDS011;17930;48.592;8.868;2024-03-23T11:06:04;2.17;;;0.90;;
6828;SDS011;17930;48.592;8.868;2024-03-23T11:08:32;2.87;;;1.03;;
6828;SDS011;17930;48.592;8.868;2024-03-23T11:11:12;3.23;;;1.13;;
6828;SDS011;17930;48.592;8.868;2024-03-23T11:13:49;1.40;;;0.97;;
6828;SDS011;17930;48.592;8.868;2024-03-23T11:16:16;5.57;;;1.47;;
6828;SDS011;17930;48.592;8.868;2024-03-23T11:18:46;3.43;;;0.90;;
6828;SDS011;17930;48.592;8.868;2024-03-23T11:21:23;4.43;;;1.13;;
6828;SDS011;17930;48.592;8.868;2024-03-23T11:24:18;2.17;;;0.90;;
6828;SDS011;17930;48.592;8.868;2024-03-23T11:26:47;3.23;;;1.00;;
6828;SDS011;17930;48.592;8.868;2024-03-23T11:29:13;4.97;;;1.40;;
6828;SDS011;17930;48.592;8.868;2024-03-23T11:31:45;3.00;;;1.50;;
6828;SDS011;17930;48.592;8.868;2024-03-23T11:34:12;3.93;;;1.70;;
6828;SDS011;17930;48.592;8.868;2024-03-23T11:36:38;2.53;;;1.20;;
6828;SDS011;17930;48.592;8.868;2024-03-23T11:39:11;3.23;;;1.70;;
6828;SDS011;17930;48.592;8.868;2024-03-23T11:41:45;3.07;;;0.80;;
6828;SDS011;17930;48.592;8.868;2024-03-23T11:44:16;6.20;;;1.27;;
6828;SDS011;17930;48.592;8.868;2024-03-23T11:46:44;2.73;;;1.10;;
6828;SDS011;17930;48.592;8.868;2024-03-23T11:49:19;10.23;;;4.63;;
6828;SDS011;17930;48.592;8.868;2024-03-23T11:51:51;7.17;;;1.57;;
6828;SDS011;17930;48.592;8.868;2024-03-23T11:54:19;6.50;;;1.43;;
6828;SDS011;17930;48.592;8.868;2024-03-23T11:59:34;4.53;;;1.60;;
6828;SDS011;17930;48.592;8.868;2024-03-23T12:02:05;2.63;;;1.20;;
6828;SDS011;17930;48.592;8.868;2024-03-23T12:04:32;5.53;;;1.47;;
6828;SDS011;17930;48.592;8.868;2024-03-23T12:07:11;7.30;;;1.53;;
6828;SDS011;17930;48.592;8.868;2024-03-23T12:09:37;6.87;;;1.70;;
6828;SDS011;17930;48.592;8.868;2024-03-23T12:12:07;4.17;;;2.00;;
6828;SDS011;17930;48.592;8.868;2024-03-23T12:14:34;6.40;;;1.60;;
6828;SDS011;17930;48.592;8.868;2024-03-23T12:17:07;5.60;;;2.20;;
6828;SDS011;17930;48.592;8.868;2024-03-23T12:19:34;3.10;;;1.97;;
6828;SDS011;17930;48.592;8.868;2024-03-23T12:22:02;5.00;;;2.03;;
6828;SDS011;17930;48.592;8.868;2024-03-23T12:24:29;4.10;;;1.60;;
6828;SDS011;17930;48.592;8.868;2024-03-23T12:26:59;7.33;;;1.93;;
6828;SDS011;17930;48.592;8.868;2024-03-23T12:29:27;3.03;;;1.50;;
6828;SDS011;17930;48.592;8.868;2024-03-23T12:31:54;4.60;;;1.80;;
6828;SDS011;17930;48.592;8.868;2024-03-23T12:34:21;4.23;;;1.53;;
6828;SDS011;17930;48.592;8.868;2024-03-23T12:36:47;4.77;;;1.93;;
6828;SDS011;17930;48.592;8.868;2024-03-23T12:39:13;4.10;;;1.63;;
6828;SDS011;17930;48.592;8.868;2024-03-23T12:41:40;4.83;;;1.47;;
6828;SDS011;17930;48.592;8.868;2024-03-23T12:44:05;3.60;;;1.23;;
6828;SDS011;17930;48.592;8.868;2024-03-23T12:46:34;4.27;;;1.57;;
6828;SDS011;17930;48.592;8.868;2024-03-23T12:49:00;4.07;;;1.40;;
6828;SDS011;17930;48.592;8.868;2024-03-23T12:51:27;3.50;;;1.50;;
6828;SDS011;17930;48.592;8.868;2024-03-23T12:53:53;2.60;;;1.30;;
6828;SDS011;17930;48.592;8.868;2024-03-23T12:56:20;5.00;;;1.80;;
6828;SDS011;17930;48.592;8.868;2024-03-23T12:58:46;1.63;;;1.20;;
6828;SDS011;17930;48.592;8.868;2024-03-23T13:01:16;2.97;;;1.03;;
6828;SDS011;17930;48.592;8.868;2024-03-23T13:03:43;0.70;;;0.60;;
6828;SDS011;17930;48.592;8.868;2024-03-23T13:06:12;4.68;;;0.82;;
6828;SDS011;17930;48.592;8.868;2024-03-23T13:08:38;2.28;;;0.90;;
6828;SDS011;17930;48.592;8.868;2024-03-23T13:11:06;2.03;;;0.87;;
6828;SDS011;17930;48.592;8.868;2024-03-23T13:13:33;2.03;;;0.87;;
6828;SDS011;17930;48.592;8.868;2024-03-23T13:16:00;2.00;;;0.80;;
6828;SDS011;17930;48.592;8.868;2024-03-23T13:18:26;2.20;;;0.70;;
6828;SDS011;17930;48.592;8.868;2024-03-23T13:20:54;0.83;;;0.43;;
6828;SDS011;17930;48.592;8.868;2024-03-23T13:23:19;0.90;;;0.60;;
6828;SDS011;17930;48.592;8.868;2024-03-23T13:25:49;1.77;;;0.67;;
6828;SDS011;17930;48.592;8.868;2024-03-23T13:28:15;3.60;;;0.90;;
6828;SDS011;17930;48.592;8.868;2024-03-23T13:30:49;1.37;;;0.90;;
6828;SDS011;17930;48.592;8.868;2024-03-23T13:33:15;1.20;;;0.60;;
6828;SDS011;17930;48.592;8.868;2024-03-23T13:35:48;4.77;;;1.27;;
6828;SDS011;17930;48.592;8.868;2024-03-23T13:38:15;2.87;;;0.90;;
6828;SDS011;17930;48.592;8.868;2024-03-23T13:40:49;1.93;;;1.63;;
6828;SDS011;17930;48.592;8.868;2024-03-23T13:43:17;4.33;;;1.17;;
6828;SDS011;17930;48.592;8.868;2024-03-23T13:45:43;6.30;;;1.70;;
6828;SDS011;17930;48.592;8.868;2024-03-23T13:48:10;1.40;;;0.80;;
6828;SDS011;17930;48.592;8.868;2024-03-23T13:50:35;0.87;;;0.70;;
6828;SDS011;17930;48.592;8.868;2024-03-23T13:53:02;2.77;;;0.77;;
6828;SDS011;17930;48.592;8.868;2024-03-23T13:55:30;1.83;;;0.40;;
6828;SDS011;17930;48.592;8.868;2024-03-23T13:57:57;1.07;;;0.93;;
6828;SDS011;17930;48.592;8.868;2024-03-23T14:00:23;3.87;;;1.23;;
6828;SDS011;17930;48.592;8.868;2024-03-23T14:02:50;3.43;;;0.83;;
6828;SDS011;17930;48.592;8.868;2024-03-23T14:05:15;2.43;;;1.30;;
6828;SDS011;17930;48.592;8.868;2024-03-23T14:07:42;2.60;;;1.30;;
6828;SDS011;17930;48.592;8.868;2024-03-23T14:10:08;1.97;;;1.00;;
6828;SDS011;17930;48.592;8.868;2024-03-23T14:12:37;1.80;;;0.90;;
6828;SDS011;17930;48.592;8.868;2024-03-23T14:15:05;1.63;;;0.70;;
6828;SDS011;17930;48.592;8.868;2024-03-23T14:17:32;3.00;;;0.83;;
6828;SDS011;17930;48.592;8.868;2024-03-23T14:19:58;4.13;;;1.00;;
6828;SDS011;17930;48.592;8.868;2024-03-23T14:22:26;2.50;;;0.97;;
6828;SDS011;17930;48.592;8.868;2024-03-23T14:24:52;4.03;;;0.90;;
6828;SDS011;17930;48.592;8.868;2024-03-23T14:27:19;2.83;;;1.10;;
6828;SDS011;17930;48.592;8.868;2024-03-23T14:29:46;1.50;;;0.70;;
6828;SDS011;17930;48.592;8.868;2024-03-23T14:32:13;1.80;;;0.63;;
6828;SDS011;17930;48.592;8.868;2024-03-23T14:34:39;6.33;;;0.70;;
6828;SDS011;17930;48.592;8.868;2024-03-23T14:37:06;3.23;;;1.30;;
6828;SDS011;17930;48.592;8.868;2024-03-23T14:39:32;4.83;;;1.30;;
6828;SDS011;17930;48.592;8.868;2024-03-23T14:42:00;2.90;;;0.73;;
6828;SDS011;17930;48.592;8.868;2024-03-23T14:44:26;4.33;;;1.40;;
6828;SDS011;17930;48.592;8.868;2024-03-23T14:46:54;1.43;;;0.53;;
6828;SDS011;17930;48.592;8.868;2024-03-23T14:49:20;3.20;;;0.80;;
6828;SDS011;17930;48.592;8.868;2024-03-23T14:51:47;2.83;;;1.00;;
6828;SDS011;17930;48.592;8.868;2024-03-23T14:54:13;4.43;;;0.93;;
6828;SDS011;17930;48.592;8.868;2024-03-23T14:56:39;3.17;;;1.00;;
6828;SDS011;17930;48.592;8.868;2024-03-23T14:59:05;2.37;;;0.90;;
6828;SDS011;17930;48.592;8.868;2024-03-23T15:01:32;1.83;;;0.90;;
6828;SDS011;17930;48.592;8.868;2024-03-23T15:04:00;4.20;;;0.90;;
6828;SDS011;17930;48.592;8.868;2024-03-23T15:06:29;2.70;;;0.83;;
6828;SDS011;17930;48.592;8.868;2024-03-23T15:08:54;1.83;;;0.73;;
6828;SDS011;17930;48.592;8.868;2024-03-23T15:11:21;3.47;;;0.93;;
6828;SDS011;17930;48.592;8.868;2024-03-23T15:13:49;1.67;;;0.70;;
6828;SDS011;17930;48.592;8.868;2024-03-23T15:16:16;2.27;;;0.57;;
6828;SDS011;17930;48.592;8.868;2024-03-23T15:18:42;3.77;;;1.10;;
6828;SDS011;17930;48.592;8.868;2024-03-23T15:21:10;1.30;;;0.70;;
6828;SDS011;17930;48.592;8.868;2024-03-23T15:23:37;2.27;;;0.90;;
6828;SDS011;17930;48.592;8.868;2024-03-23T15:26:03;1.43;;;1.03;;
6828;SDS011;17930;48.592;8.868;2024-03-23T15:28:31;2.83;;;1.37;;
6828;SDS011;17930;48.592;8.868;2024-03-23T15:31:06;3.60;;;0.87;;
6828;SDS011;17930;48.592;8.868;2024-03-23T15:33:34;1.33;;;0.83;;
6828;SDS011;17930;48.592;8.868;2024-03-23T15:36:01;2.30;;;0.70;;
6828;SDS011;17930;48.592;8.868;2024-03-23T15:38:28;2.60;;;0.57;;
6828;SDS011;17930;48.592;8.868;2024-03-23T15:40:55;1.30;;;0.80;;
6828;SDS011;17930;48.592;8.868;2024-03-23T15:43:21;3.30;;;1.10;;
6828;SDS011;17930;48.592;8.868;2024-03-23T15:45:53;2.33;;;0.77;;
6828;SDS011;17930;48.592;8.868;2024-03-23T15:48:19;1.50;;;0.50;;
6828;SDS011;17930;48.592;8.868;2024-03-23T15:50:50;2.42;;;0.70;;
6828;SDS011;17930;48.592;8.868;2024-03-23T15:53:18;1.38;;;0.65;;
6828;SDS011;17930;48.592;8.868;2024-03-23T15:55:52;2.38;;;0.50;;
6828;SDS011;17930;48.592;8.868;2024-03-23T15:58:18;1.33;;;0.43;;
6828;SDS011;17930;48.592;8.868;2024-03-23T16:00:46;4.32;;;0.63;;